Time,TemperatureF,DewpointF,PressureIn,WindDirection,WindDirectionDegrees,WindSpeedMPH,WindSpeedGustMPH,Humidity,HourlyPrecipIn,Conditions,Clouds,dailyrainin,SoftwareType,DateUTC
2013-01-17 00:00:00,36.5,35.7,29.50,WSW,251,0.0,0.0,97,0.00,,,0.00,VWS V14.01,2013-01-17 05:00:00,
2013-01-17 00:01:00,36.5,35.7,29.50,WSW,251,0.0,0.0,97,0.00,,,0.00,VWS V14.01,2013-01-17 05:01:00,
2013-01-17 00:03:00,36.5,35.7,29.50,WSW,251,0.0,0.0,97,0.00,,,0.00,VWS V14.01,2013-01-17 05:03:00,
2013-01-17 00:04:00,36.5,35.7,29.50,WSW,251,0.0,0.0,97,0.00,,,0.00,VWS V14.01,2013-01-17 05:04:00,
2013-01-17 00:09:00,36.5,36.0,29.50,WSW,251,0.0,0.0,98,0.00,,,0.00,VWS V14.01,2013-01-17 05:09:00,
2013-01-17 00:14:00,36.5,36.0,29.50,WSW,251,0.0,0.0,98,0.00,,,0.00,VWS V14.01,2013-01-17 05:14:00,
2013-01-17 00:19:00,36.5,36.0,29.50,NW,307,0.0,0.0,98,0.00,,,0.00,VWS V14.01,2013-01-17 05:19:00,
2013-01-17 00:24:00,36.5,36.0,29.50,NW,307,0.0,0.0,98,0.00,,,0.00,VWS V14.01,2013-01-17 05:24:00,
2013-01-17 00:29:00,36.5,36.0,29.50,WSW,241,0.0,0.0,98,0.00,,,0.00,VWS V14.01,2013-01-17 05:29:00,
2013-01-17 00:34:00,36.5,36.0,29.50,WNW,285,0.0,0.0,98,0.00,,,0.00,VWS V14.01,2013-01-17 05:34:00,
2013-01-17 00:39:00,36.7,36.2,29.50,WNW,296,0.0,0.0,98,0.00,,,0.00,VWS V14.01,2013-01-17 05:39:00,
2013-01-17 00:44:00,36.7,36.2,29.50,West,277,0.0,0.0,98,0.00,,,0.00,VWS V14.01,2013-01-17 05:44:00,
2013-01-17 00:49:00,36.5,36.0,29.50,West,277,0.0,0.0,98,0.00,,,0.00,VWS V14.01,2013-01-17 05:49:00,
2013-01-17 00:54:00,36.5,36.0,29.50,West,261,0.0,0.0,98,0.00,,,0.00,VWS V14.01,2013-01-17 05:54:00,
2013-01-17 00:59:00,36.5,36.0,29.50,West,266,0.0,0.0,98,0.00,,,0.00,VWS V14.01,2013-01-17 05:59:00,
2013-01-17 01:04:00,36.7,36.2,29.50,West,266,0.0,0.0,98,0.00,,,0.00,VWS V14.01,2013-01-17 06:04:00,
2013-01-17 01:09:00,36.5,36.0,29.50,West,266,0.0,0.0,98,0.00,,,0.00,VWS V14.01,2013-01-17 06:09:00,
2013-01-17 01:14:00,36.5,36.0,29.53,West,266,0.0,0.0,98,0.00,,,0.00,VWS V14.01,2013-01-17 06:14:00,
2013-01-17 01:19:00,36.5,36.0,29.53,WSW,242,0.0,0.0,98,0.00,,,0.00,VWS V14.01,2013-01-17 06:19:00,
2013-01-17 01:24:00,36.5,36.0,29.53,WSW,258,0.0,0.0,98,0.00,,,0.00,VWS V14.01,2013-01-17 06:24:00,
2013-01-17 01:29:00,36.5,36.0,29.53,WSW,258,0.0,0.0,98,0.00,,,0.00,VWS V14.01,2013-01-17 06:29:00,
2013-01-17 01:34:00,36.5,36.0,29.53,WSW,258,0.0,0.0,98,0.00,,,0.00,VWS V14.01,2013-01-17 06:34:00,
2013-01-17 01:39:00,36.3,35.8,29.53,WSW,258,0.0,0.0,98,0.00,,,0.00,VWS V14.01,2013-01-17 06:39:00,
2013-01-17 01:44:00,36.3,35.8,29.53,WSW,258,0.0,0.0,98,0.00,,,0.00,VWS V14.01,2013-01-17 06:44:00,
2013-01-17 01:49:00,36.3,35.8,29.53,WSW,258,0.0,0.0,98,0.00,,,0.00,VWS V14.01,2013-01-17 06:49:00,
2013-01-17 01:54:00,36.3,35.8,29.53,WSW,258,0.0,0.0,98,0.00,,,0.00,VWS V14.01,2013-01-17 06:54:00,
2013-01-17 01:59:00,36.3,35.8,29.53,WSW,258,0.0,0.0,98,0.00,,,0.00,VWS V14.01,2013-01-17 06:59:00,
2013-01-17 02:04:00,36.1,35.6,29.50,WSW,258,0.0,0.0,98,0.00,,,0.00,VWS V14.01,2013-01-17 07:04:00,
2013-01-17 02:09:00,36.1,35.6,29.53,WSW,258,0.0,0.0,98,0.00,,,0.00,VWS V14.01,2013-01-17 07:09:00,
2013-01-17 02:14:00,36.0,35.5,29.53,WSW,258,0.0,0.0,98,0.00,,,0.00,VWS V14.01,2013-01-17 07:14:00,
2013-01-17 02:19:00,35.8,35.3,29.53,WSW,258,0.0,0.0,98,0.00,,,0.00,VWS V14.01,2013-01-17 07:19:00,
2013-01-17 02:24:00,35.6,35.1,29.53,WSW,258,0.0,0.0,98,0.00,,,0.00,VWS V14.01,2013-01-17 07:24:00,
2013-01-17 02:29:00,35.6,35.1,29.53,WSW,258,0.0,0.0,98,0.00,,,0.00,VWS V14.01,2013-01-17 07:29:00,
2013-01-17 02:34:00,35.4,34.9,29.53,WSW,257,0.0,0.0,98,0.00,,,0.00,VWS V14.01,2013-01-17 07:34:00,
2013-01-17 02:39:00,35.4,34.9,29.53,WSW,258,0.0,0.0,98,0.00,,,0.00,VWS V14.01,2013-01-17 07:39:00,
2013-01-17 02:44:00,35.4,34.9,29.53,WSW,258,0.0,0.0,98,0.00,,,0.00,VWS V14.01,2013-01-17 07:44:00,
2013-01-17 02:49:00,35.4,34.9,29.53,WSW,258,0.0,0.0,98,0.00,,,0.00,VWS V14.01,2013-01-17 07:49:00,
2013-01-17 02:54:00,35.2,34.7,29.53,WSW,258,0.0,0.0,98,0.00,,,0.00,VWS V14.01,2013-01-17 07:54:00,
2013-01-17 02:59:00,35.2,34.7,29.53,WSW,258,0.0,0.0,98,0.00,,,0.00,VWS V14.01,2013-01-17 07:59:00,
2013-01-17 03:04:00,35.1,34.5,29.53,WSW,258,0.0,0.0,98,0.00,,,0.00,VWS V14.01,2013-01-17 08:04:00,
2013-01-17 03:09:00,35.1,34.5,29.50,WSW,258,0.0,0.0,98,0.00,,,0.00,VWS V14.01,2013-01-17 08:09:00,
2013-01-17 03:14:00,35.1,34.5,29.50,WSW,258,0.0,0.0,98,0.00,,,0.00,VWS V14.01,2013-01-17 08:14:00,
2013-01-17 03:19:00,35.1,34.5,29.50,WSW,258,0.0,0.0,98,0.00,,,0.00,VWS V14.01,2013-01-17 08:19:00,
2013-01-17 03:24:00,34.9,34.4,29.50,WSW,258,0.0,0.0,98,0.00,,,0.00,VWS V14.01,2013-01-17 08:24:00,
2013-01-17 03:29:00,34.9,34.4,29.50,WSW,258,0.0,0.0,98,0.00,,,0.00,VWS V14.01,2013-01-17 08:29:00,
2013-01-17 03:34:00,34.9,34.4,29.50,WSW,258,0.0,0.0,98,0.00,,,0.00,VWS V14.01,2013-01-17 08:34:00,
2013-01-17 03:39:00,34.9,34.4,29.50,WSW,257,0.0,0.0,98,0.00,,,0.00,VWS V14.01,2013-01-17 08:39:00,
2013-01-17 03:44:00,34.5,34.0,29.50,WSW,258,0.0,0.0,98,0.00,,,0.00,VWS V14.01,2013-01-17 08:44:00,
2013-01-17 03:49:00,34.5,34.0,29.50,WSW,258,0.0,0.0,98,0.00,,,0.00,VWS V14.01,2013-01-17 08:49:00,
2013-01-17 03:54:00,34.3,33.8,29.53,WSW,258,0.0,0.0,98,0.00,,,0.00,VWS V14.01,2013-01-17 08:54:00,
2013-01-17 03:59:00,34.3,33.8,29.53,WSW,258,0.0,0.0,98,0.00,,,0.00,VWS V14.01,2013-01-17 08:59:00,
2013-01-17 04:04:00,34.2,33.7,29.53,WSW,258,0.0,0.0,98,0.00,,,0.00,VWS V14.01,2013-01-17 09:04:00,
2013-01-17 04:09:00,34.0,33.5,29.53,WSW,258,0.0,0.0,98,0.00,,,0.00,VWS V14.01,2013-01-17 09:09:00,
2013-01-17 04:14:00,34.2,33.7,29.53,WSW,258,0.0,0.0,98,0.00,,,0.00,VWS V14.01,2013-01-17 09:14:00,
2013-01-17 04:19:00,34.2,33.7,29.50,WSW,258,0.0,0.0,98,0.00,,,0.00,VWS V14.01,2013-01-17 09:19:00,
2013-01-17 04:24:00,34.0,33.5,29.50,WSW,258,0.0,0.0,98,0.00,,,0.00,VWS V14.01,2013-01-17 09:24:00,
2013-01-17 04:29:00,33.6,33.1,29.53,WSW,258,0.0,0.0,98,0.00,,,0.00,VWS V14.01,2013-01-17 09:29:00,
2013-01-17 04:34:00,33.4,32.9,29.53,WSW,258,0.0,0.0,98,0.00,,,0.00,VWS V14.01,2013-01-17 09:34:00,
2013-01-17 04:39:00,33.3,32.8,29.50,WSW,258,0.0,0.0,98,0.00,,,0.00,VWS V14.01,2013-01-17 09:39:00,
2013-01-17 04:44:00,33.3,32.8,29.50,WSW,258,0.0,0.0,98,0.00,,,0.00,VWS V14.01,2013-01-17 09:44:00,
2013-01-17 04:49:00,33.6,33.1,29.50,WSW,258,0.0,0.0,98,0.00,,,0.00,VWS V14.01,2013-01-17 09:49:00,
2013-01-17 04:54:00,33.6,33.1,29.50,WSW,258,0.0,0.0,98,0.00,,,0.00,VWS V14.01,2013-01-17 09:54:00,
2013-01-17 04:59:00,33.6,33.1,29.50,WSW,258,0.0,0.0,98,0.00,,,0.00,VWS V14.01,2013-01-17 09:59:00,
2013-01-17 05:04:00,33.6,33.1,29.50,WSW,258,0.0,0.0,98,0.00,,,0.00,VWS V14.01,2013-01-17 10:04:00,
2013-01-17 05:09:00,33.6,33.1,29.50,WSW,258,0.0,0.0,98,0.00,,,0.00,VWS V14.01,2013-01-17 10:09:00,
2013-01-17 05:14:00,33.4,32.9,29.50,WSW,258,0.0,0.0,98,0.00,,,0.00,VWS V14.01,2013-01-17 10:14:00,
2013-01-17 05:19:00,33.4,32.9,29.50,WSW,258,0.0,0.0,98,0.00,,,0.00,VWS V14.01,2013-01-17 10:19:00,
2013-01-17 05:24:00,33.3,32.8,29.50,WSW,258,0.0,0.0,98,0.00,,,0.00,VWS V14.01,2013-01-17 10:24:00,
2013-01-17 05:29:00,33.3,32.8,29.53,WSW,258,0.0,0.0,98,0.00,,,0.00,VWS V14.01,2013-01-17 10:29:00,
2013-01-17 05:34:00,33.3,32.8,29.53,WSW,258,0.0,0.0,98,0.00,,,0.00,VWS V14.01,2013-01-17 10:34:00,
2013-01-17 05:39:00,32.9,32.1,29.53,WSW,258,0.0,0.0,97,0.00,,,0.00,VWS V14.01,2013-01-17 10:39:00,
2013-01-17 05:44:00,32.7,32.0,29.53,WSW,258,0.0,0.0,97,0.00,,,0.00,VWS V14.01,2013-01-17 10:44:00,
2013-01-17 05:49:00,32.7,32.0,29.53,WSW,258,0.0,0.0,97,0.00,,,0.00,VWS V14.01,2013-01-17 10:49:00,
2013-01-17 05:54:00,32.7,32.0,29.53,WSW,258,0.0,0.0,97,0.00,,,0.00,VWS V14.01,2013-01-17 10:54:00,
2013-01-17 05:59:00,32.7,32.2,29.53,WSW,258,0.0,0.0,98,0.00,,,0.00,VWS V14.01,2013-01-17 10:59:00,
2013-01-17 06:04:00,32.5,31.8,29.53,WSW,258,0.0,0.0,97,0.00,,,0.00,VWS V14.01,2013-01-17 11:04:00,
2013-01-17 06:09:00,32.5,31.8,29.53,WSW,258,0.0,0.0,97,0.00,,,0.00,VWS V14.01,2013-01-17 11:09:00,
2013-01-17 06:14:00,32.5,31.8,29.53,WSW,258,0.0,0.0,97,0.00,,,0.00,VWS V14.01,2013-01-17 11:14:00,
2013-01-17 06:19:00,32.4,31.6,29.53,WSW,258,0.0,0.0,97,0.00,,,0.00,VWS V14.01,2013-01-17 11:19:00,
2013-01-17 06:24:00,32.4,31.6,29.53,WSW,258,0.0,0.0,97,0.00,,,0.00,VWS V14.01,2013-01-17 11:24:00,
2013-01-17 06:29:00,32.2,31.4,29.53,WSW,258,0.0,0.0,97,0.00,,,0.00,VWS V14.01,2013-01-17 11:29:00,
2013-01-17 06:34:00,32.0,31.2,29.53,WSW,258,0.0,0.0,97,0.00,,,0.00,VWS V14.01,2013-01-17 11:34:00,
2013-01-17 06:39:00,32.0,31.2,29.53,WSW,258,0.0,0.0,97,0.00,,,0.00,VWS V14.01,2013-01-17 11:39:00,
2013-01-17 06:44:00,31.6,30.9,29.53,WSW,258,0.0,0.0,97,0.00,,,0.00,VWS V14.01,2013-01-17 11:44:00,
2013-01-17 06:49:00,31.6,30.9,29.53,WSW,258,0.0,0.0,97,0.00,,,0.00,VWS V14.01,2013-01-17 11:49:00,
2013-01-17 06:54:00,31.6,30.9,29.53,WSW,258,0.0,0.0,97,0.00,,,0.00,VWS V14.01,2013-01-17 11:54:00,
2013-01-17 06:59:00,31.6,30.9,29.53,WSW,258,0.0,0.0,97,0.00,,,0.00,VWS V14.01,2013-01-17 11:59:00,
2013-01-17 07:04:00,31.6,30.9,29.56,WSW,258,0.0,0.0,97,0.00,,,0.00,VWS V14.01,2013-01-17 12:04:00,
2013-01-17 07:09:00,31.6,30.9,29.56,WSW,258,0.0,0.0,97,0.00,,,0.00,VWS V14.01,2013-01-17 12:09:00,
2013-01-17 07:14:00,32.2,31.7,29.56,WSW,258,0.0,0.0,98,0.00,,,0.00,VWS V14.01,2013-01-17 12:14:00,
2013-01-17 07:19:00,32.0,31.2,29.56,WSW,258,0.0,0.0,97,0.00,,,0.00,VWS V14.01,2013-01-17 12:19:00,
2013-01-17 07:24:00,31.8,31.1,29.56,WSW,258,0.0,0.0,97,0.00,,,0.00,VWS V14.01,2013-01-17 12:24:00,
2013-01-17 07:29:00,31.6,30.9,29.56,WSW,258,0.0,0.0,97,0.00,,,0.00,VWS V14.01,2013-01-17 12:29:00,
2013-01-17 07:34:00,31.6,30.9,29.56,WSW,257,0.0,0.0,97,0.00,,,0.00,VWS V14.01,2013-01-17 12:34:00,
2013-01-17 07:39:00,31.8,31.1,29.59,WSW,258,0.0,0.0,97,0.00,,,0.00,VWS V14.01,2013-01-17 12:39:00,
2013-01-17 07:44:00,32.2,31.4,29.59,WSW,258,0.0,0.0,97,0.00,,,0.00,VWS V14.01,2013-01-17 12:44:00,
2013-01-17 07:49:00,32.4,31.6,29.59,WSW,258,0.0,0.0,97,0.00,,,0.00,VWS V14.01,2013-01-17 12:49:00,
2013-01-17 07:54:00,32.5,31.8,29.59,WSW,258,0.0,0.0,97,0.00,,,0.00,VWS V14.01,2013-01-17 12:54:00,
2013-01-17 07:59:00,32.7,32.2,29.59,WSW,258,0.0,0.0,98,0.00,,,0.00,VWS V14.01,2013-01-17 12:59:00,
2013-01-17 08:04:00,33.1,32.6,29.59,WSW,258,0.0,0.0,98,0.00,,,0.00,VWS V14.01,2013-01-17 13:04:00,
2013-01-17 08:09:00,33.6,33.1,29.59,WSW,258,0.0,0.0,98,0.00,,,0.00,VWS V14.01,2013-01-17 13:09:00,
2013-01-17 08:14:00,33.8,33.0,29.59,WSW,258,0.0,0.0,97,0.00,,,0.00,VWS V14.01,2013-01-17 13:14:00,
2013-01-17 08:19:00,34.0,33.2,29.59,WSW,258,0.0,0.0,97,0.00,,,0.00,VWS V14.01,2013-01-17 13:19:00,
2013-01-17 08:24:00,34.2,33.7,29.59,WSW,258,0.0,0.0,98,0.00,,,0.00,VWS V14.01,2013-01-17 13:24:00,
2013-01-17 08:29:00,34.9,34.4,29.59,WSW,258,0.0,0.0,98,0.00,,,0.00,VWS V14.01,2013-01-17 13:29:00,
2013-01-17 08:34:00,35.2,34.7,29.59,WSW,258,0.0,0.0,98,0.00,,,0.00,VWS V14.01,2013-01-17 13:34:00,
2013-01-17 08:39:00,35.8,35.0,29.59,WSW,258,0.0,0.0,97,0.00,,,0.00,VWS V14.01,2013-01-17 13:39:00,
2013-01-17 08:44:00,36.3,35.5,29.59,WSW,258,0.0,0.0,97,0.00,,,0.00,VWS V14.01,2013-01-17 13:44:00,
2013-01-17 08:49:00,37.0,36.3,29.59,WSW,258,0.0,0.0,97,0.00,,,0.00,VWS V14.01,2013-01-17 13:49:00,
2013-01-17 08:54:00,37.4,36.6,29.59,WSW,258,0.0,0.0,97,0.00,,,0.00,VWS V14.01,2013-01-17 13:54:00,
2013-01-17 08:59:00,37.8,37.0,29.62,WSW,258,0.0,0.0,97,0.00,,,0.00,VWS V14.01,2013-01-17 13:59:00,
2013-01-17 09:04:00,37.9,37.2,29.62,WSW,258,0.0,0.0,97,0.00,,,0.00,VWS V14.01,2013-01-17 14:04:00,
2013-01-17 09:09:00,37.8,36.7,29.62,WSW,258,0.0,0.0,96,0.00,,,0.00,VWS V14.01,2013-01-17 14:09:00,
2013-01-17 09:14:00,37.6,36.5,29.62,WSW,258,0.0,0.0,96,0.00,,,0.00,VWS V14.01,2013-01-17 14:14:00,
2013-01-17 09:19:00,37.6,36.5,29.62,WSW,258,0.0,0.0,96,0.00,,,0.00,VWS V14.01,2013-01-17 14:19:00,
2013-01-17 09:24:00,37.9,36.9,29.62,WSW,258,0.0,0.0,96,0.00,,,0.00,VWS V14.01,2013-01-17 14:24:00,
2013-01-17 09:29:00,38.7,37.6,29.62,WSW,258,0.0,0.0,96,0.00,,,0.00,VWS V14.01,2013-01-17 14:29:00,
2013-01-17 09:34:00,39.7,38.7,29.62,WSW,258,0.0,0.0,96,0.00,,,0.00,VWS V14.01,2013-01-17 14:34:00,
2013-01-17 09:39:00,39.9,38.9,29.62,WSW,258,0.0,0.0,96,0.00,,,0.00,VWS V14.01,2013-01-17 14:39:00,
2013-01-17 09:44:00,40.6,39.3,29.62,WSW,258,0.0,0.0,95,0.00,,,0.00,VWS V14.01,2013-01-17 14:44:00,
2013-01-17 09:49:00,39.9,38.3,29.62,NW,313,0.0,0.0,94,0.00,,,0.00,VWS V14.01,2013-01-17 14:49:00,
2013-01-17 09:54:00,38.8,37.0,29.62,NW,313,0.0,0.0,93,0.00,,,0.00,VWS V14.01,2013-01-17 14:54:00,
2013-01-17 09:59:00,38.7,36.3,29.62,NW,313,0.0,0.0,91,0.00,,,0.00,VWS V14.01,2013-01-17 14:59:00,
2013-01-17 10:04:00,39.0,36.1,29.62,WNW,285,0.0,0.0,89,0.00,,,0.00,VWS V14.01,2013-01-17 15:04:00,
2013-01-17 10:09:00,39.0,35.5,29.62,WSW,252,0.0,0.0,87,0.00,,,0.00,VWS V14.01,2013-01-17 15:09:00,
2013-01-17 10:13:00,38.7,32.1,29.62,WNW,294,0.0,0.0,77,0.00,,,0.00,VWS V14.01,2013-01-17 15:13:00,
2013-01-17 10:18:00,38.5,29.9,29.62,WNW,297,0.0,0.0,71,0.00,,,0.00,VWS V14.01,2013-01-17 15:18:00,
2013-01-17 10:23:00,39.2,31.0,29.62,WNW,297,0.0,0.0,72,0.00,,,0.00,VWS V14.01,2013-01-17 15:23:00,
2013-01-17 10:28:00,39.4,29.0,29.62,SW,233,2.7,2.7,66,0.00,,,0.00,VWS V14.01,2013-01-17 15:28:00,
2013-01-17 10:33:00,39.4,27.9,29.62,WNW,284,2.2,2.2,63,0.00,,,0.00,VWS V14.01,2013-01-17 15:33:00,
2013-01-17 10:38:00,39.4,27.9,29.62,West,270,2.7,2.7,63,0.00,,,0.00,VWS V14.01,2013-01-17 15:38:00,
2013-01-17 10:43:00,39.9,28.8,29.62,WSW,250,0.0,2.7,64,0.00,,,0.00,VWS V14.01,2013-01-17 15:43:00,
2013-01-17 10:48:00,39.9,27.6,29.62,WNW,290,2.2,3.1,61,0.00,,,0.00,VWS V14.01,2013-01-17 15:48:00,
2013-01-17 10:53:00,39.7,27.4,29.62,WNW,299,2.7,2.7,61,0.04,,,0.04,VWS V14.01,2013-01-17 15:53:00,
2013-01-17 10:58:00,39.7,27.4,29.62,WNW,294,0.0,3.1,61,0.04,,,0.04,VWS V14.01,2013-01-17 15:58:00,
2013-01-17 11:03:00,39.6,27.6,29.62,NW,318,0.0,2.7,62,0.04,,,0.04,VWS V14.01,2013-01-17 16:03:00,
2013-01-17 11:08:00,39.4,27.5,29.62,WNW,287,0.0,3.1,62,0.04,,,0.04,VWS V14.01,2013-01-17 16:08:00,
2013-01-17 11:13:00,38.8,27.7,29.62,West,268,0.0,0.0,64,0.04,,,0.04,VWS V14.01,2013-01-17 16:13:00,
2013-01-17 11:18:00,39.2,28.1,29.62,NW,314,2.7,2.7,64,0.04,,,0.04,VWS V14.01,2013-01-17 16:18:00,
2013-01-17 11:23:00,39.7,29.0,29.62,West,278,0.0,0.0,65,0.04,,,0.04,VWS V14.01,2013-01-17 16:23:00,
2013-01-17 11:28:00,39.9,28.8,29.62,WNW,284,3.1,3.1,64,0.08,,,0.08,VWS V14.01,2013-01-17 16:28:00,
2013-01-17 11:33:00,39.9,27.2,29.62,WNW,294,0.0,0.0,60,0.08,,,0.08,VWS V14.01,2013-01-17 16:33:00,
2013-01-17 11:38:00,40.3,27.1,29.62,WNW,286,2.7,3.1,59,0.08,,,0.08,VWS V14.01,2013-01-17 16:38:00,
2013-01-17 11:43:00,40.6,27.9,29.62,WNW,303,0.0,0.0,60,0.08,,,0.08,VWS V14.01,2013-01-17 16:43:00,
2013-01-17 11:48:00,40.5,26.9,29.62,WNW,298,0.0,3.1,58,0.08,,,0.08,VWS V14.01,2013-01-17 16:48:00,
2013-01-17 11:53:00,40.3,26.3,29.62,NW,322,3.6,3.6,57,0.04,,,0.08,VWS V14.01,2013-01-17 16:53:00,
2013-01-17 11:58:00,40.3,25.4,29.62,WNW,301,0.0,0.0,55,0.04,,,0.08,VWS V14.01,2013-01-17 16:58:00,
2013-01-17 12:03:00,40.5,25.1,29.62,NNW,330,5.4,5.4,54,0.08,,,0.12,VWS V14.01,2013-01-17 17:03:00,
2013-01-17 12:08:00,40.8,25.9,29.62,WNW,295,8.1,8.1,55,0.08,,,0.12,VWS V14.01,2013-01-17 17:08:00,
2013-01-17 12:13:00,41.2,25.8,29.62,WNW,296,4.0,4.0,54,0.08,,,0.12,VWS V14.01,2013-01-17 17:13:00,
2013-01-17 12:18:00,41.5,25.2,29.62,NW,305,4.0,4.0,52,0.08,,,0.12,VWS V14.01,2013-01-17 17:18:00,
2013-01-17 12:23:00,41.5,24.8,29.62,NNW,331,5.8,5.8,51,0.08,,,0.12,VWS V14.01,2013-01-17 17:23:00,
2013-01-17 12:28:00,41.5,24.3,29.62,NW,323,2.7,4.9,50,0.04,,,0.12,VWS V14.01,2013-01-17 17:28:00,
2013-01-17 12:33:00,41.4,24.1,29.62,WNW,299,2.7,7.6,50,0.04,,,0.12,VWS V14.01,2013-01-17 17:33:00,
2013-01-17 12:38:00,41.5,24.3,29.62,West,273,3.1,6.3,50,0.04,,,0.12,VWS V14.01,2013-01-17 17:38:00,
2013-01-17 12:43:00,41.4,24.1,29.62,West,274,4.0,4.0,50,0.04,,,0.12,VWS V14.01,2013-01-17 17:43:00,
2013-01-17 12:48:00,40.8,23.6,29.62,NW,316,3.1,3.1,50,0.08,,,0.16,VWS V14.01,2013-01-17 17:48:00,
2013-01-17 12:53:00,40.6,23.9,29.62,NW,307,4.0,4.0,51,0.08,,,0.16,VWS V14.01,2013-01-17 17:53:00,
2013-01-17 12:58:00,41.0,23.8,29.62,WNW,299,2.7,3.1,50,0.12,,,0.20,VWS V14.01,2013-01-17 17:58:00,
2013-01-17 13:03:00,41.2,24.0,29.62,West,268,2.2,2.2,50,0.08,,,0.20,VWS V14.01,2013-01-17 18:03:00,
2013-01-17 13:08:00,41.0,23.8,29.62,West,271,2.7,2.7,50,0.08,,,0.20,VWS V14.01,2013-01-17 18:08:00,
2013-01-17 13:13:00,40.6,23.5,29.62,NE,42,0.0,0.0,50,0.08,,,0.20,VWS V14.01,2013-01-17 18:13:00,
2013-01-17 13:18:00,40.6,23.9,29.62,WNW,296,4.9,4.9,51,0.08,,,0.20,VWS V14.01,2013-01-17 18:18:00,
2013-01-17 13:23:00,41.0,24.3,29.62,WNW,303,0.0,0.0,51,0.08,,,0.20,VWS V14.01,2013-01-17 18:23:00,
2013-01-17 13:28:00,41.0,23.8,29.62,WNW,297,4.0,4.0,50,0.08,,,0.20,VWS V14.01,2013-01-17 18:28:00,
2013-01-17 13:33:00,41.0,23.8,29.62,West,274,0.0,2.7,50,0.08,,,0.20,VWS V14.01,2013-01-17 18:33:00,
2013-01-17 13:38:00,41.0,23.8,29.62,WNW,290,0.0,2.7,50,0.12,,,0.24,VWS V14.01,2013-01-17 18:38:00,
2013-01-17 13:43:00,41.0,23.3,29.62,WSW,239,0.0,0.0,49,0.12,,,0.24,VWS V14.01,2013-01-17 18:43:00,
2013-01-17 13:48:00,41.2,24.0,29.62,WNW,285,2.2,2.2,50,0.08,,,0.24,VWS V14.01,2013-01-17 18:48:00,
2013-01-17 13:53:00,41.4,23.6,29.62,WSW,249,3.1,3.1,49,0.08,,,0.24,VWS V14.01,2013-01-17 18:53:00,
2013-01-17 13:58:00,41.4,22.1,29.62,West,278,0.0,2.2,46,0.08,,,0.28,VWS V14.01,2013-01-17 18:58:00,
2013-01-17 14:03:00,41.4,22.7,29.62,West,272,3.6,4.0,47,0.08,,,0.28,VWS V14.01,2013-01-17 19:03:00,
2013-01-17 14:08:00,41.5,22.3,29.62,SW,219,2.2,4.0,46,0.08,,,0.28,VWS V14.01,2013-01-17 19:08:00,
2013-01-17 14:13:00,41.5,21.3,29.62,North,357,0.0,3.1,44,0.08,,,0.28,VWS V14.01,2013-01-17 19:13:00,
2013-01-17 14:18:00,41.4,20.6,29.62,ESE,119,3.1,4.0,43,0.08,,,0.28,VWS V14.01,2013-01-17 19:18:00,
2013-01-17 14:23:00,41.4,21.1,29.62,West,275,0.0,0.0,44,0.08,,,0.28,VWS V14.01,2013-01-17 19:23:00,
2013-01-17 14:28:00,41.2,19.9,29.62,WNW,292,3.6,3.6,42,0.08,,,0.28,VWS V14.01,2013-01-17 19:28:00,
2013-01-17 14:33:00,41.4,20.0,29.65,WNW,290,3.1,3.1,42,0.08,,,0.28,VWS V14.01,2013-01-17 19:33:00,
2013-01-17 14:38:00,41.2,19.9,29.65,NW,315,2.7,2.7,42,0.04,,,0.28,VWS V14.01,2013-01-17 19:38:00,
2013-01-17 14:43:00,41.2,19.9,29.65,NW,313,2.7,3.1,42,0.04,,,0.28,VWS V14.01,2013-01-17 19:43:00,
2013-01-17 14:48:00,41.4,19.5,29.65,NW,311,2.7,2.7,41,0.04,,,0.28,VWS V14.01,2013-01-17 19:48:00,
2013-01-17 14:53:00,41.5,20.2,29.65,WNW,294,4.0,4.0,42,0.04,,,0.28,VWS V14.01,2013-01-17 19:53:00,
2013-01-17 14:58:00,41.4,20.0,29.65,WNW,295,4.0,4.0,42,0.00,,,0.28,VWS V14.01,2013-01-17 19:58:00,
2013-01-17 15:03:00,41.4,20.0,29.65,WNW,303,4.0,4.0,42,0.04,,,0.31,VWS V14.01,2013-01-17 20:03:00,
2013-01-17 15:08:00,41.4,19.5,29.65,NNW,334,0.0,4.0,41,0.04,,,0.31,VWS V14.01,2013-01-17 20:08:00,
2013-01-17 15:13:00,41.2,19.9,29.65,NE,49,2.7,2.7,42,0.04,,,0.31,VWS V14.01,2013-01-17 20:13:00,
2013-01-17 15:18:00,40.8,19.5,29.65,West,261,3.1,3.1,42,0.04,,,0.31,VWS V14.01,2013-01-17 20:18:00,
2013-01-17 15:23:00,40.5,19.2,29.65,WNW,302,4.0,4.0,42,0.04,,,0.31,VWS V14.01,2013-01-17 20:23:00,
2013-01-17 15:28:00,40.3,19.0,29.65,WNW,290,2.2,2.2,42,0.04,,,0.31,VWS V14.01,2013-01-17 20:28:00,
2013-01-17 15:33:00,39.9,19.2,29.65,WNW,301,4.0,4.0,43,0.04,,,0.31,VWS V14.01,2013-01-17 20:33:00,
2013-01-17 15:38:00,39.7,19.1,29.65,West,278,2.7,3.6,43,0.04,,,0.31,VWS V14.01,2013-01-17 20:38:00,
2013-01-17 15:43:00,39.7,19.1,29.65,WNW,303,0.0,0.0,43,0.04,,,0.31,VWS V14.01,2013-01-17 20:43:00,
2013-01-17 15:48:00,39.4,18.8,29.65,West,278,4.0,4.0,43,0.04,,,0.31,VWS V14.01,2013-01-17 20:48:00,
2013-01-17 15:53:00,39.4,18.8,29.65,WNW,302,5.8,5.8,43,0.04,,,0.31,VWS V14.01,2013-01-17 20:53:00,
2013-01-17 15:58:00,39.2,19.1,29.65,WNW,283,0.0,2.7,44,0.04,,,0.31,VWS V14.01,2013-01-17 20:58:00,
2013-01-17 16:03:00,39.2,19.1,29.65,WNW,290,2.7,2.7,44,0.00,,,0.31,VWS V14.01,2013-01-17 21:03:00,
2013-01-17 16:08:00,38.8,19.3,29.68,NW,314,0.0,0.0,45,0.00,,,0.31,VWS V14.01,2013-01-17 21:08:00,
2013-01-17 16:13:00,38.8,19.3,29.68,NNW,329,0.0,0.0,45,0.00,,,0.31,VWS V14.01,2013-01-17 21:13:00,
2013-01-17 16:18:00,38.7,19.7,29.68,NW,313,0.0,3.1,46,0.00,,,0.31,VWS V14.01,2013-01-17 21:18:00,
2013-01-17 16:23:00,38.5,19.5,29.65,WNW,296,0.0,0.0,46,0.00,,,0.31,VWS V14.01,2013-01-17 21:23:00,
2013-01-17 16:28:00,38.5,19.0,29.65,NW,318,0.0,0.0,45,0.00,,,0.31,VWS V14.01,2013-01-17 21:28:00,
2013-01-17 16:33:00,38.3,19.4,29.65,West,269,4.0,4.0,46,0.00,,,0.31,VWS V14.01,2013-01-17 21:33:00,
2013-01-17 16:38:00,38.1,19.2,29.65,WNW,291,2.2,2.2,46,0.00,,,0.31,VWS V14.01,2013-01-17 21:38:00,
2013-01-17 16:43:00,38.1,18.7,29.65,WNW,297,2.2,2.2,45,0.00,,,0.31,VWS V14.01,2013-01-17 21:43:00,
2013-01-17 16:48:00,38.1,19.2,29.65,WNW,286,0.0,0.0,46,0.00,,,0.31,VWS V14.01,2013-01-17 21:48:00,
2013-01-17 16:53:00,37.9,19.5,29.68,WNW,286,0.0,0.0,47,0.00,,,0.31,VWS V14.01,2013-01-17 21:53:00,
2013-01-17 16:58:00,37.8,19.4,29.68,West,278,0.0,0.0,47,0.00,,,0.31,VWS V14.01,2013-01-17 21:58:00,
2013-01-17 17:03:00,37.6,19.2,29.68,West,277,0.0,0.0,47,0.00,,,0.31,VWS V14.01,2013-01-17 22:03:00,
2013-01-17 17:08:00,37.4,19.0,29.68,West,277,0.0,0.0,47,0.00,,,0.31,VWS V14.01,2013-01-17 22:08:00,
2013-01-17 17:13:00,37.4,19.0,29.68,West,277,0.0,0.0,47,0.00,,,0.31,VWS V14.01,2013-01-17 22:13:00,
2013-01-17 17:18:00,37.4,19.0,29.68,WNW,294,0.0,0.0,47,0.00,,,0.31,VWS V14.01,2013-01-17 22:18:00,
2013-01-17 17:23:00,37.4,19.0,29.68,NW,315,0.0,0.0,47,0.00,,,0.31,VWS V14.01,2013-01-17 22:23:00,
2013-01-17 17:28:00,37.4,19.0,29.68,WNW,302,0.0,0.0,47,0.00,,,0.31,VWS V14.01,2013-01-17 22:28:00,
2013-01-17 17:33:00,37.2,18.9,29.68,WNW,302,0.0,0.0,47,0.00,,,0.31,VWS V14.01,2013-01-17 22:33:00,
2013-01-17 17:38:00,37.2,18.9,29.68,WNW,302,2.2,2.2,47,0.00,,,0.31,VWS V14.01,2013-01-17 22:38:00,
2013-01-17 17:43:00,37.0,18.7,29.71,NW,313,0.0,0.0,47,0.00,,,0.31,VWS V14.01,2013-01-17 22:43:00,
2013-01-17 17:48:00,37.0,18.7,29.71,NW,307,0.0,0.0,47,0.00,,,0.31,VWS V14.01,2013-01-17 22:48:00,
2013-01-17 17:53:00,36.9,18.5,29.71,NW,306,0.0,0.0,47,0.00,,,0.31,VWS V14.01,2013-01-17 22:53:00,
2013-01-17 17:58:00,36.7,18.4,29.71,NW,306,0.0,0.0,47,0.00,,,0.31,VWS V14.01,2013-01-17 22:58:00,
2013-01-17 18:03:00,36.7,18.4,29.71,NW,306,0.0,0.0,47,0.00,,,0.31,VWS V14.01,2013-01-17 23:03:00,
2013-01-17 18:08:00,36.5,17.7,29.71,WNW,291,0.0,0.0,46,0.00,,,0.31,VWS V14.01,2013-01-17 23:08:00,
2013-01-17 18:13:00,36.5,17.7,29.71,WSW,247,2.2,2.2,46,0.00,,,0.31,VWS V14.01,2013-01-17 23:13:00,
2013-01-17 18:18:00,36.3,17.5,29.71,WSW,247,0.0,0.0,46,0.00,,,0.31,VWS V14.01,2013-01-17 23:18:00,
2013-01-17 18:23:00,36.3,17.5,29.71,North,357,0.0,0.0,46,0.00,,,0.31,VWS V14.01,2013-01-17 23:23:00,
2013-01-17 18:28:00,36.3,17.0,29.71,WNW,293,2.2,2.2,45,0.00,,,0.31,VWS V14.01,2013-01-17 23:28:00,
2013-01-17 18:33:00,36.3,17.0,29.71,West,281,2.7,2.7,45,0.00,,,0.31,VWS V14.01,2013-01-17 23:33:00,
2013-01-17 18:38:00,36.3,17.0,29.74,West,281,0.0,0.0,45,0.00,,,0.31,VWS V14.01,2013-01-17 23:38:00,
2013-01-17 18:43:00,36.1,16.9,29.74,WNW,303,0.0,0.0,45,0.00,,,0.31,VWS V14.01,2013-01-17 23:43:00,
2013-01-17 18:48:00,36.1,16.9,29.74,WNW,302,0.0,0.0,45,0.00,,,0.31,VWS V14.01,2013-01-17 23:48:00,
2013-01-17 18:53:00,36.0,17.2,29.74,WNW,302,0.0,0.0,46,0.00,,,0.31,VWS V14.01,2013-01-17 23:53:00,
2013-01-17 18:58:00,35.8,16.5,29.74,WNW,302,0.0,0.0,45,0.00,,,0.31,VWS V14.01,2013-01-17 23:58:00,
2013-01-17 19:03:00,35.6,16.9,29.74,WNW,302,0.0,0.0,46,0.00,,,0.31,VWS V14.01,2013-01-18 00:03:00,
2013-01-17 19:08:00,35.6,16.9,29.74,WNW,302,0.0,0.0,46,0.00,,,0.31,VWS V14.01,2013-01-18 00:08:00,
2013-01-17 19:13:00,35.4,17.2,29.71,WNW,298,3.1,3.1,47,0.00,,,0.31,VWS V14.01,2013-01-18 00:13:00,
2013-01-17 19:18:00,35.4,17.2,29.71,NW,305,0.0,0.0,47,0.00,,,0.31,VWS V14.01,2013-01-18 00:18:00,
2013-01-17 19:23:00,35.4,16.7,29.74,NW,324,2.7,2.7,46,0.00,,,0.31,VWS V14.01,2013-01-18 00:23:00,
2013-01-17 19:28:00,35.4,16.2,29.74,WNW,300,0.0,0.0,45,0.00,,,0.31,VWS V14.01,2013-01-18 00:28:00,
2013-01-17 19:33:00,35.2,16.5,29.74,NNW,327,0.0,0.0,46,0.00,,,0.31,VWS V14.01,2013-01-18 00:33:00,
2013-01-17 19:38:00,35.1,16.4,29.74,SW,235,0.0,0.0,46,0.00,,,0.31,VWS V14.01,2013-01-18 00:38:00,
2013-01-17 19:43:00,34.9,16.2,29.74,SW,235,0.0,0.0,46,0.00,,,0.31,VWS V14.01,2013-01-18 00:43:00,
2013-01-17 19:48:00,34.9,16.2,29.74,SW,235,0.0,0.0,46,0.00,,,0.31,VWS V14.01,2013-01-18 00:48:00,
2013-01-17 19:53:00,34.7,16.0,29.74,SW,235,0.0,0.0,46,0.00,,,0.31,VWS V14.01,2013-01-18 00:53:00,
2013-01-17 19:58:00,34.5,16.4,29.74,NNW,334,0.0,0.0,47,0.00,,,0.31,VWS V14.01,2013-01-18 00:58:00,
2013-01-17 20:03:00,34.3,15.7,29.74,NNW,334,0.0,0.0,46,0.00,,,0.31,VWS V14.01,2013-01-18 01:03:00,
2013-01-17 20:08:00,34.2,15.6,29.74,NNW,341,0.0,0.0,46,0.00,,,0.31,VWS V14.01,2013-01-18 01:08:00,
2013-01-17 20:13:00,34.0,15.4,29.74,NNW,341,0.0,0.0,46,0.00,,,0.31,VWS V14.01,2013-01-18 01:13:00,
2013-01-17 20:18:00,34.0,15.4,29.74,NNW,341,0.0,0.0,46,0.00,,,0.31,VWS V14.01,2013-01-18 01:18:00,
2013-01-17 20:23:00,33.8,15.7,29.74,NNW,337,0.0,0.0,47,0.00,,,0.31,VWS V14.01,2013-01-18 01:23:00,
2013-01-17 20:28:00,33.6,15.6,29.74,West,265,0.0,0.0,47,0.00,,,0.31,VWS V14.01,2013-01-18 01:28:00,
2013-01-17 20:33:00,33.6,15.6,29.74,West,265,0.0,0.0,47,0.00,,,0.31,VWS V14.01,2013-01-18 01:33:00,
2013-01-17 20:38:00,33.4,15.4,29.74,West,265,0.0,0.0,47,0.00,,,0.31,VWS V14.01,2013-01-18 01:38:00,
2013-01-17 20:43:00,33.4,15.4,29.71,ESE,111,0.0,0.0,47,0.00,,,0.31,VWS V14.01,2013-01-18 01:43:00,
2013-01-17 20:48:00,33.3,15.2,29.71,ESE,111,0.0,0.0,47,0.00,,,0.31,VWS V14.01,2013-01-18 01:48:00,
2013-01-17 20:53:00,33.3,15.7,29.74,SSE,150,0.0,0.0,48,0.00,,,0.31,VWS V14.01,2013-01-18 01:53:00,
2013-01-17 20:58:00,33.3,15.7,29.74,WSW,245,0.0,0.0,48,0.00,,,0.31,VWS V14.01,2013-01-18 01:58:00,
2013-01-17 21:03:00,33.1,15.5,29.74,WSW,245,0.0,0.0,48,0.00,,,0.31,VWS V14.01,2013-01-18 02:03:00,
2013-01-17 21:08:00,33.1,15.5,29.74,WSW,245,0.0,0.0,48,0.00,,,0.31,VWS V14.01,2013-01-18 02:08:00,
2013-01-17 21:13:00,32.9,15.4,29.74,WSW,245,0.0,0.0,48,0.00,,,0.31,VWS V14.01,2013-01-18 02:13:00,
2013-01-17 21:18:00,32.9,14.9,29.74,WSW,245,0.0,0.0,47,0.00,,,0.31,VWS V14.01,2013-01-18 02:18:00,
2013-01-17 21:23:00,32.7,15.2,29.74,WSW,245,0.0,0.0,48,0.00,,,0.31,VWS V14.01,2013-01-18 02:23:00,
2013-01-17 21:28:00,32.7,15.2,29.74,WSW,245,0.0,0.0,48,0.00,,,0.31,VWS V14.01,2013-01-18 02:28:00,
2013-01-17 21:33:00,32.7,14.7,29.74,NE,34,0.0,4.9,47,0.00,,,0.31,VWS V14.01,2013-01-18 02:33:00,
2013-01-17 21:38:00,32.5,14.6,29.74,North,353,0.0,0.0,47,0.00,,,0.31,VWS V14.01,2013-01-18 02:38:00,
2013-01-17 21:43:00,32.5,14.6,29.74,WSW,248,0.0,0.0,47,0.00,,,0.31,VWS V14.01,2013-01-18 02:43:00,
2013-01-17 21:48:00,32.4,14.4,29.74,WSW,248,0.0,0.0,47,0.00,,,0.31,VWS V14.01,2013-01-18 02:48:00,
2013-01-17 21:53:00,32.2,14.7,29.74,ESE,108,0.0,0.0,48,0.00,,,0.31,VWS V14.01,2013-01-18 02:53:00,
2013-01-17 21:58:00,32.2,14.7,29.74,East,83,0.0,0.0,48,0.00,,,0.31,VWS V14.01,2013-01-18 02:58:00,
2013-01-17 22:03:00,32.0,14.6,29.74,SW,220,0.0,0.0,48,0.00,,,0.31,VWS V14.01,2013-01-18 03:03:00,
2013-01-17 22:08:00,31.8,14.4,29.74,NW,318,0.0,0.0,48,0.00,,,0.31,VWS V14.01,2013-01-18 03:08:00,
2013-01-17 22:13:00,31.8,14.4,29.71,NW,318,0.0,0.0,48,0.00,,,0.31,VWS V14.01,2013-01-18 03:13:00,
2013-01-17 22:18:00,31.6,14.2,29.71,NW,318,0.0,0.0,48,0.00,,,0.31,VWS V14.01,2013-01-18 03:18:00,
2013-01-17 22:23:00,31.6,13.7,29.71,WSW,243,0.0,0.0,47,0.00,,,0.31,VWS V14.01,2013-01-18 03:23:00,
2013-01-17 22:28:00,31.5,13.6,29.74,NE,50,0.0,0.0,47,0.00,,,0.31,VWS V14.01,2013-01-18 03:28:00,
2013-01-17 22:33:00,31.5,13.1,29.74,ENE,65,0.0,0.0,46,0.00,,,0.31,VWS V14.01,2013-01-18 03:33:00,
2013-01-17 22:38:00,31.5,13.1,29.74,SSE,154,0.0,0.0,46,0.00,,,0.31,VWS V14.01,2013-01-18 03:38:00,
2013-01-17 22:43:00,31.3,12.9,29.74,SSE,154,0.0,0.0,46,0.00,,,0.31,VWS V14.01,2013-01-18 03:43:00,
2013-01-17 22:48:00,31.1,12.8,29.74,SSE,154,0.0,0.0,46,0.00,,,0.31,VWS V14.01,2013-01-18 03:48:00,
2013-01-17 22:53:00,31.1,12.8,29.74,WNW,300,0.0,0.0,46,0.00,,,0.31,VWS V14.01,2013-01-18 03:53:00,
2013-01-17 22:58:00,30.9,13.1,29.74,ENE,63,0.0,2.7,47,0.00,,,0.31,VWS V14.01,2013-01-18 03:58:00,
2013-01-17 23:03:00,30.9,12.6,29.74,ESE,107,0.0,0.0,46,0.00,,,0.31,VWS V14.01,2013-01-18 04:03:00,
2013-01-17 23:08:00,30.7,12.4,29.71,ESE,109,0.0,0.0,46,0.00,,,0.31,VWS V14.01,2013-01-18 04:08:00,
2013-01-17 23:13:00,30.6,11.8,29.71,ESE,109,0.0,0.0,45,0.00,,,0.31,VWS V14.01,2013-01-18 04:13:00,
2013-01-17 23:18:00,30.4,11.6,29.71,East,88,2.7,3.1,45,0.00,,,0.31,VWS V14.01,2013-01-18 04:18:00,
2013-01-17 23:23:00,30.2,11.4,29.68,North,3,0.0,0.0,45,0.00,,,0.31,VWS V14.01,2013-01-18 04:23:00,
2013-01-17 23:28:00,30.2,10.9,29.68,WSW,245,0.0,0.0,44,0.00,,,0.31,VWS V14.01,2013-01-18 04:28:00,
2013-01-17 23:33:00,30.0,10.8,29.68,ENE,59,2.2,2.7,44,0.00,,,0.31,VWS V14.01,2013-01-18 04:33:00,
2013-01-17 23:38:00,29.8,10.6,29.68,NNW,331,0.0,0.0,44,0.00,,,0.31,VWS V14.01,2013-01-18 04:38:00,
2013-01-17 23:43:00,29.7,9.9,29.68,WNW,296,3.1,3.1,43,0.00,,,0.31,VWS V14.01,2013-01-18 04:43:00,
2013-01-17 23:48:00,29.5,9.8,29.68,NW,311,0.0,0.0,43,0.00,,,0.31,VWS V14.01,2013-01-18 04:48:00,
2013-01-17 23:53:00,29.5,9.8,29.68,West,265,0.0,0.0,43,0.00,,,0.31,VWS V14.01,2013-01-18 04:53:00,
2013-01-17 23:58:00,29.5,9.8,29.71,West,265,0.0,0.0,43,0.00,,,0.31,VWS V14.01,2013-01-18 04:58:00,